Cosco Aden — VRKF9 — position and weather

sailwx.info

Track history (hours):
 
Tides and Currents Weather Stations Pressure Air Temp Water Temp Dewpoint Dewpoint Depression Visibility Wind Speed Wind Dir Waves Ship Positions

Cosco Aden

Last reported at 2016-Jun-17 13:13 UTC. Time now 2016-Jun-30 10:39 UTC.
Position N 30°31' E 123°02'.
Warning: this ship's position is 12 days out of date.

Length 261 m; draft 12.4 m.

Type: Other ship. MMSI: 477765900.

Date/timePositionNaut miles runAvg speedWind from/ knotsBaromVisibWave heightAir tempDewpointWater temp
2016-Jun-17 13:13N 30°31' E 123°02'1218.3
2016-Jun-17 12:33N 30°28' E 122°48'3214.8
2016-Jun-17 10:22N 30°34' E 122°11'7 8.4
2016-Jun-17 09:33N 30°37' E 122°04'0 0.0
2016-Jun-17 08:23N 30°37' E 122°04'0 0.0
2016-Jun-17 07:32N 30°37' E 122°04'0 0.0
2016-Jun-17 06:32N 30°37' E 122°04'0 0.0
2016-Jun-17 05:29N 30°37' E 122°04'0 0.0
2016-Jun-17 04:32N 30°37' E 122°04'0 0.0
2016-Jun-17 03:26N 30°37' E 122°04'0 0.1
2016-Jun-16 23:33N 30°37' E 122°04'1211.1
2016-Jun-16 22:27N 30°33' E 122°17'3 3.4
2016-Jun-16 21:33N 30°33' E 122°21'10 9.5
2016-Jun-16 20:30N 30°30' E 122°32'17 1.2
2016-Jun-16 06:24N 30°20' E 122°47'8 9.2
2016-Jun-16 05:32N 30°12' E 122°49'10 9.5
2016-Jun-16 04:26N 30°02' E 122°49'1310.1
2016-Jun-16 03:07N 29°52' E 122°39'711.4
2016-Jun-16 02:31N 29°47' E 122°33'1111.3
2016-Jun-16 01:33N 29°43' E 122°22'1111.2
2016-Jun-16 00:33N 29°51' E 122°12'8 7.5
2016-Jun-15 23:32N 29°53' E 122°04'0 0.0
2016-Jun-15 22:28N 29°53' E 122°04'0 0.0
2016-Jun-15 20:10N 29°53' E 122°04'0 0.0
2016-Jun-15 16:22N 29°53' E 122°04'0 0.0
2016-Jun-15 14:16N 29°53' E 122°04'0 0.0
2016-Jun-15 13:31N 29°53' E 122°04'5 4.7
2016-Jun-15 12:33N 29°56' E 122°08'1212.3
2016-Jun-15 11:32N 29°46' E 122°18'10 9.0
2016-Jun-15 10:29N 29°43' E 122°28'9 9.3
2016-Jun-15 09:33N 29°35' E 122°31'1111.3
2016-Jun-15 08:32N 29°23' E 122°31'1212.3
2016-Jun-15 07:33N 29°11' E 122°31'32213.4
2016-Jun-14 07:25N 24°39' E 119°16'2714.4
2016-Jun-14 05:33N 24°22' E 118°54'1614.3
2016-Jun-14 04:25N 24°11' E 118°41'1714.0
2016-Jun-14 03:12N 23°60' E 118°27'913.6
2016-Jun-14 02:33N 23°54' E 118°20'2613.2
2016-Jun-14 00:33N 23°36' E 117°59'7314.3
2016-Jun-13 19:26N 22°54' E 116°53'1112.6
2016-Jun-13 18:33N 22°46' E 116°45'12813.9
2016-Jun-13 09:23N 22°07' E 114°33'1213.9
2016-Jun-13 08:32N 22°07' E 114°20'1612.1
2016-Jun-13 07:11N 22°17' E 114°06'3 5.3
2016-Jun-13 06:33N 22°20' E 114°08'0 0.1
2016-Jun-13 05:33N 22°20' E 114°08'0 0.0
2016-Jun-13 04:33N 22°20' E 114°08'0 0.0
2016-Jun-13 03:33N 22°20' E 114°08'0 0.0
2016-Jun-13 02:30N 22°20' E 114°08'0 0.0
2016-Jun-13 01:33N 22°20' E 114°08'0 0.0
2016-Jun-13 00:33N 22°20' E 114°08'0 0.0
2016-Jun-12 23:33N 22°20' E 114°08'0 0.0
2016-Jun-12 22:33N 22°20' E 114°08'0 0.0
2016-Jun-12 21:33N 22°20' E 114°08'0 0.0
2016-Jun-12 20:33N 22°20' E 114°08'5 5.4
2016-Jun-12 19:34N 22°21' E 114°02'10 9.7
2016-Jun-12 18:33N 22°26' E 113°53'2 1.6
2016-Jun-12 17:28N 22°27' E 113°54'0 0.0
2016-Jun-12 16:16N 22°27' E 113°54'0 0.0
2016-Jun-12 15:10N 22°27' E 113°54'0 0.0
2016-Jun-12 14:28N 22°27' E 113°54'0 0.0
2016-Jun-12 13:22N 22°27' E 113°54'0 0.0
2016-Jun-12 12:22N 22°27' E 113°54'0 0.1
2016-Jun-12 11:28N 22°27' E 113°54'0 0.1
2016-Jun-12 10:22N 22°27' E 113°54'0 0.0
2016-Jun-12 09:28N 22°27' E 113°54'0 0.0
2016-Jun-12 08:28N 22°27' E 113°54'0 0.0
2016-Jun-12 07:28N 22°27' E 113°54'0 0.0
2016-Jun-12 06:22N 22°27' E 113°54'2 1.3
2016-Jun-12 04:33N 22°25' E 113°53'9 8.3
2016-Jun-12 03:26N 22°21' E 114°02'1110.9
2016-Jun-12 02:26N 22°13' E 114°10'6 7.3
2016-Jun-12 01:33N 22°08' E 114°15'8 7.9
2016-Jun-12 00:33N 22°08' E 114°24'10 9.5
2016-Jun-11 23:33N 22°08' E 114°34'30312.1
2016-Jun-10 22:32N 22°31' E 119°60'1212.3
2016-Jun-10 21:32N 22°33' E 120°13'5 0.7
2016-Jun-10 14:13N 22°34' E 120°18'0 0.0
2016-Jun-10 11:28N 22°34' E 120°18'1 1.1
2016-Jun-10 10:32N 22°34' E 120°19'7 6.9
2016-Jun-10 09:30N 22°31' E 120°12'1 0.6
2016-Jun-10 08:33N 22°32' E 120°12'2 1.8
2016-Jun-10 07:32N 22°33' E 120°12'5 5.5
2016-Jun-10 06:33N 22°38' E 120°09'7 7.1
2016-Jun-10 05:32N 22°45' E 120°05'  
Track history (hours):
 
Tides and Currents Weather Stations Pressure Air Temp Water Temp Dewpoint Dewpoint Depression Visibility Wind Speed Wind Dir Waves Ship Positions

Cosco Aden

Last reported at 2016-Jun-17 13:13 UTC. Time now 2016-Jun-30 10:39 UTC.
Position N 30°31' E 123°02'.
Warning: this ship's position is 12 days out of date.

Length 261 m; draft 12.4 m.

Type: Other ship. MMSI: 477765900.

Date/timePositionNaut miles runAvg speedWind from/ knotsBaromVisibWave heightAir tempDewpointWater temp
2016-Jun-17 13:13N 30°31' E 123°02'1218.3
2016-Jun-17 12:33N 30°28' E 122°48'3214.8
2016-Jun-17 10:22N 30°34' E 122°11'7 8.4
2016-Jun-17 09:33N 30°37' E 122°04'0 0.0
2016-Jun-17 08:23N 30°37' E 122°04'0 0.0
2016-Jun-17 07:32N 30°37' E 122°04'0 0.0
2016-Jun-17 06:32N 30°37' E 122°04'0 0.0
2016-Jun-17 05:29N 30°37' E 122°04'0 0.0
2016-Jun-17 04:32N 30°37' E 122°04'0 0.0
2016-Jun-17 03:26N 30°37' E 122°04'0 0.1
2016-Jun-16 23:33N 30°37' E 122°04'1211.1
2016-Jun-16 22:27N 30°33' E 122°17'3 3.4
2016-Jun-16 21:33N 30°33' E 122°21'10 9.5
2016-Jun-16 20:30N 30°30' E 122°32'17 1.2
2016-Jun-16 06:24N 30°20' E 122°47'8 9.2
2016-Jun-16 05:32N 30°12' E 122°49'10 9.5
2016-Jun-16 04:26N 30°02' E 122°49'1310.1
2016-Jun-16 03:07N 29°52' E 122°39'711.4
2016-Jun-16 02:31N 29°47' E 122°33'1111.3
2016-Jun-16 01:33N 29°43' E 122°22'1111.2
2016-Jun-16 00:33N 29°51' E 122°12'8 7.5
2016-Jun-15 23:32N 29°53' E 122°04'0 0.0
2016-Jun-15 22:28N 29°53' E 122°04'0 0.0
2016-Jun-15 20:10N 29°53' E 122°04'0 0.0
2016-Jun-15 16:22N 29°53' E 122°04'0 0.0
2016-Jun-15 14:16N 29°53' E 122°04'0 0.0
2016-Jun-15 13:31N 29°53' E 122°04'5 4.7
2016-Jun-15 12:33N 29°56' E 122°08'1212.3
2016-Jun-15 11:32N 29°46' E 122°18'10 9.0
2016-Jun-15 10:29N 29°43' E 122°28'9 9.3
2016-Jun-15 09:33N 29°35' E 122°31'1111.3
2016-Jun-15 08:32N 29°23' E 122°31'1212.3
2016-Jun-15 07:33N 29°11' E 122°31'32213.4
2016-Jun-14 07:25N 24°39' E 119°16'2714.4
2016-Jun-14 05:33N 24°22' E 118°54'1614.3
2016-Jun-14 04:25N 24°11' E 118°41'1714.0
2016-Jun-14 03:12N 23°60' E 118°27'913.6
2016-Jun-14 02:33N 23°54' E 118°20'2613.2
2016-Jun-14 00:33N 23°36' E 117°59'7314.3
2016-Jun-13 19:26N 22°54' E 116°53'1112.6
2016-Jun-13 18:33N 22°46' E 116°45'12813.9
2016-Jun-13 09:23N 22°07' E 114°33'1213.9
2016-Jun-13 08:32N 22°07' E 114°20'1612.1
2016-Jun-13 07:11N 22°17' E 114°06'3 5.3
2016-Jun-13 06:33N 22°20' E 114°08'0 0.1
2016-Jun-13 05:33N 22°20' E 114°08'0 0.0
2016-Jun-13 04:33N 22°20' E 114°08'0 0.0
2016-Jun-13 03:33N 22°20' E 114°08'0 0.0
2016-Jun-13 02:30N 22°20' E 114°08'0 0.0
2016-Jun-13 01:33N 22°20' E 114°08'0 0.0
2016-Jun-13 00:33N 22°20' E 114°08'0 0.0
2016-Jun-12 23:33N 22°20' E 114°08'0 0.0
2016-Jun-12 22:33N 22°20' E 114°08'0 0.0
2016-Jun-12 21:33N 22°20' E 114°08'0 0.0
2016-Jun-12 20:33N 22°20' E 114°08'5 5.4
2016-Jun-12 19:34N 22°21' E 114°02'10 9.7
2016-Jun-12 18:33N 22°26' E 113°53'2 1.6
2016-Jun-12 17:28N 22°27' E 113°54'0 0.0
2016-Jun-12 16:16N 22°27' E 113°54'0 0.0
2016-Jun-12 15:10N 22°27' E 113°54'0 0.0
2016-Jun-12 14:28N 22°27' E 113°54'0 0.0
2016-Jun-12 13:22N 22°27' E 113°54'0 0.0
2016-Jun-12 12:22N 22°27' E 113°54'0 0.1
2016-Jun-12 11:28N 22°27' E 113°54'0 0.1
2016-Jun-12 10:22N 22°27' E 113°54'0 0.0
2016-Jun-12 09:28N 22°27' E 113°54'0 0.0
2016-Jun-12 08:28N 22°27' E 113°54'0 0.0
2016-Jun-12 07:28N 22°27' E 113°54'0 0.0
2016-Jun-12 06:22N 22°27' E 113°54'2 1.3
2016-Jun-12 04:33N 22°25' E 113°53'9 8.3
2016-Jun-12 03:26N 22°21' E 114°02'1110.9
2016-Jun-12 02:26N 22°13' E 114°10'6 7.3
2016-Jun-12 01:33N 22°08' E 114°15'8 7.9
2016-Jun-12 00:33N 22°08' E 114°24'10 9.5
2016-Jun-11 23:33N 22°08' E 114°34'30312.1
2016-Jun-10 22:32N 22°31' E 119°60'1212.3
2016-Jun-10 21:32N 22°33' E 120°13'5 0.7
2016-Jun-10 14:13N 22°34' E 120°18'0 0.0
2016-Jun-10 11:28N 22°34' E 120°18'1 1.1
2016-Jun-10 10:32N 22°34' E 120°19'7 6.9
2016-Jun-10 09:30N 22°31' E 120°12'1 0.6
2016-Jun-10 08:33N 22°32' E 120°12'2 1.8
2016-Jun-10 07:32N 22°33' E 120°12'5 5.5
2016-Jun-10 06:33N 22°38' E 120°09'7 7.1
2016-Jun-10 05:32N 22°45' E 120°05'  

Dump ship's entire track history